createdAt,value
2023-02-19T00:09:17.957Z,9.70
2023-02-19T00:19:17.592Z,10.60
2023-02-19T00:29:17.220Z,8.00
2023-02-19T00:39:16.913Z,9.10
2023-02-19T00:49:16.532Z,9.50
2023-02-19T00:59:16.130Z,7.20
2023-02-19T01:09:17.327Z,9.80
2023-02-19T01:19:15.372Z,9.60
2023-02-19T01:29:15.523Z,11.50
2023-02-19T01:39:14.823Z,13.60
2023-02-19T01:49:09.289Z,11.50
2023-02-19T01:59:08.780Z,12.60
2023-02-19T02:09:08.442Z,9.80
2023-02-19T02:19:08.281Z,14.20
2023-02-19T02:29:07.696Z,14.50
2023-02-19T02:39:07.324Z,14.50
2023-02-19T02:49:07.014Z,14.50
2023-02-19T02:59:06.594Z,14.40
2023-02-19T03:09:06.445Z,10.90
2023-02-19T03:19:05.877Z,6.60
2023-02-19T03:29:05.705Z,12.30
2023-02-19T03:39:05.158Z,9.30
2023-02-19T03:49:04.787Z,15.60
2023-02-19T03:59:04.801Z,15.00
2023-02-19T04:09:04.051Z,16.30
2023-02-19T04:19:03.858Z,16.00
2023-02-19T04:29:03.524Z,14.90
2023-02-19T04:39:03.135Z,15.50
2023-02-19T04:49:02.833Z,13.20
2023-02-19T04:59:02.273Z,10.40
2023-02-19T05:09:02.092Z,13.30
2023-02-19T05:18:56.697Z,12.10
2023-02-19T05:28:56.181Z,11.40
2023-02-19T05:38:55.843Z,10.10
2023-02-19T05:48:55.302Z,16.40
2023-02-19T05:58:54.940Z,18.10
2023-02-19T06:08:54.696Z,13.70
2023-02-19T06:18:54.334Z,11.70
2023-02-19T06:28:53.806Z,11.80
2023-02-19T06:38:53.471Z,11.10
2023-02-19T06:48:53.111Z,13.70
2023-02-19T06:58:53.065Z,10.10
2023-02-19T07:08:52.354Z,10.60
2023-02-19T07:18:52.034Z,10.00
2023-02-19T07:28:51.690Z,12.90
2023-02-19T07:38:51.503Z,9.90
2023-02-19T07:48:50.917Z,11.50
2023-02-19T07:58:50.898Z,12.40
2023-02-19T08:08:50.226Z,12.70
2023-02-19T08:18:50.017Z,11.80
2023-02-19T08:28:49.662Z,11.10
2023-02-19T08:38:49.155Z,16.10
2023-02-19T08:48:43.943Z,16.80
2023-02-19T08:58:43.372Z,15.10
2023-02-19T09:08:42.846Z,12.00
2023-02-19T09:18:42.670Z,13.30
2023-02-19T09:28:42.195Z,12.70
2023-02-19T09:38:41.752Z,11.50
2023-02-19T09:48:41.532Z,12.00
2023-02-19T09:58:40.995Z,14.00
2023-02-19T10:08:40.844Z,14.50
2023-02-19T10:18:40.249Z,12.90
2023-02-19T10:28:39.902Z,9.50
2023-02-19T10:38:39.676Z,10.50
2023-02-19T10:48:39.166Z,9.80
2023-02-19T10:58:38.788Z,15.30
2023-02-19T11:08:38.748Z,15.60
2023-02-19T11:18:38.054Z,11.10
2023-02-19T11:28:37.728Z,11.70
2023-02-19T11:38:37.325Z,13.30
2023-02-19T11:48:36.958Z,11.40
2023-02-19T11:58:36.550Z,12.40
2023-02-19T12:08:36.201Z,10.90
2023-02-19T12:18:31.263Z,8.30
2023-02-19T12:28:30.409Z,8.00
2023-02-19T12:38:29.976Z,4.70
2023-02-19T12:48:29.621Z,5.70
2023-02-19T12:58:29.224Z,4.00
2023-02-19T13:08:28.863Z,6.90
2023-02-19T13:18:28.479Z,6.10
2023-02-19T13:28:28.284Z,6.80
2023-02-19T13:38:27.748Z,8.20
2023-02-19T13:48:27.527Z,6.90
2023-02-19T13:58:27.121Z,9.20
2023-02-19T14:08:26.626Z,7.90
2023-02-19T14:18:26.232Z,14.80
2023-02-19T14:28:26.000Z,12.10
2023-02-19T14:38:25.597Z,10.50
2023-02-19T14:48:25.273Z,11.50
2023-02-19T14:58:24.833Z,11.10
2023-02-19T15:08:24.343Z,12.00
2023-02-19T15:18:23.998Z,10.20
2023-02-19T15:28:23.784Z,12.40
2023-02-19T15:38:23.250Z,13.50
2023-02-19T15:48:22.861Z,10.20
2023-02-19T15:58:22.474Z,9.50
2023-02-19T16:08:22.105Z,11.30
2023-02-19T16:18:21.872Z,13.70
2023-02-19T16:28:21.496Z,9.90
2023-02-19T16:38:20.989Z,14.00
2023-02-19T16:48:17.189Z,8.60
2023-02-19T16:58:15.084Z,11.50
2023-02-19T17:08:14.730Z,11.30
2023-02-19T17:18:14.327Z,8.80
2023-02-19T17:28:14.254Z,10.30
2023-02-19T17:38:13.658Z,5.40
2023-02-19T17:48:13.233Z,6.80
2023-02-19T17:58:12.854Z,7.40
2023-02-19T18:08:12.525Z,6.50
2023-02-19T18:18:12.125Z,6.90
2023-02-19T18:28:11.935Z,7.60
2023-02-19T18:38:11.397Z,9.40
2023-02-19T18:48:11.239Z,11.40
2023-02-19T18:58:10.849Z,14.80
2023-02-19T19:08:10.299Z,13.70
2023-02-19T19:18:09.977Z,8.50
2023-02-19T19:28:04.355Z,8.40
2023-02-19T19:38:04.021Z,10.80
2023-02-19T19:48:04.091Z,7.30
2023-02-19T19:58:03.261Z,5.10
2023-02-19T20:08:02.898Z,6.70
2023-02-19T20:18:07.531Z,20.30
2023-02-19T20:28:02.148Z,11.00
2023-02-19T20:38:01.790Z,7.00
2023-02-19T20:48:01.389Z,9.90
2023-02-19T20:58:01.174Z,9.30
2023-02-19T21:08:00.648Z,5.00
2023-02-19T21:18:00.462Z,4.80
2023-02-19T21:28:00.131Z,6.40
2023-02-19T21:37:54.435Z,6.10
2023-02-19T21:47:54.046Z,4.40
2023-02-19T21:57:53.692Z,4.00
2023-02-19T22:07:53.299Z,5.80
2023-02-19T22:17:53.103Z,4.60
2023-02-19T22:27:52.718Z,3.60
2023-02-19T22:37:52.514Z,4.30
2023-02-19T22:47:51.850Z,3.50
2023-02-19T22:57:51.493Z,4.00
2023-02-19T23:07:51.136Z,5.00
2023-02-19T23:17:50.747Z,4.10
2023-02-19T23:27:45.422Z,4.80
2023-02-19T23:37:45.187Z,4.70
2023-02-19T23:47:45.032Z,4.50
2023-02-19T23:57:44.453Z,5.40
